Ασθενής βροχή, πιθανή καταιγίδα
Ασθενής βροχή, πιθανή καταιγίδα
Με cirrus και πιθανές καταιγίδες
Με cirrus και πιθανές καταιγίδες
Λίγο νεφελώδης και με λίγα cirrus
Λίγο νεφελώδης και με λίγα cirrus
Λίγο νεφελώδης και με λίγα cirrus
(°C)
19°
19°
19°
19°
18°
18°
17°
17°
16°
16°
15°
15°
15°
15°
(°C)
18°
18°
17°
17°
16°
15°
14°
ΒΒΑ
Β
Β
ΒΒΔ
ΒΒΔ
ΒΔ
ΒΔ
(km/h)
11-13
8-16
8-14
8-13
7-13
7-11
7-10
(χιλιοστά)
0.2
0
0
0
0
0
0
(%)
65
65
37
30
24
11
12

Ανύψωση ήλιου

/ 18.6°
sun-icon
UV 3
05:17
21:19
Αύξων αμφίκυρτος (φάση σελήνης) (134°)
16:52
03:48

METAR για Bordenau (ETNW)

Χρόνος Συνθήκες Θερμοκρασία/
Σημείο δρόσου
Άνεμος Ορατότητα Καιρός Νέφη Πίεση Αλλαγή Ανεπεξέργαστο
VFR 19°C / 12°C 90º 7kt 9700m - Few Clouds 3000ft
Scattered Clouds 9000ft
Broken Clouds 24000ft
1008 - ETNW 191620Z 09007KT 9999 FEW030CB SCT090 BKN240 19/12 Q1008 RETS BLU+
VFR 20°C / 13°C 310º 4kt 9700m Thunderstorm Scattered Clouds 3000ft
Broken Clouds 24000ft
1008 - ETNW 191520Z 31004KT 9999 TS SCT030CB BKN240 20/13 Q1008 BLU+
VFR 18°C / 12°C 290º 2kt 9700m - Scattered Clouds 3000ft
Scattered Clouds 9000ft
Broken Clouds 24000ft
1008 - ETNW 191440Z 29002KT 9999 SCT030CB SCT090 BKN240 18/12 Q1008 RETS BLU+
VFR 17°C / 15°C 250º 3kt 9700m Thunderstorm Scattered Clouds 3000ft
Broken Clouds 9000ft
1008 - ETNW 191420Z 25003KT 9999 TS SCT030CB BKN090 17/15 Q1008 BLU
MVFR 17°C / 12°C 340º 9kt 9700m Light Thunderstorm Rain 3.00mm precipitation Broken Clouds 3000ft
Scattered Clouds 11000ft
1009 - ETNW 191334Z 34009KT 9999 -TSRA BKN030CB SCT110 17/12 Q1009 BLU
MVFR 19°C / 13°C 120º 4kt 9700m in the Vicinity Showers Broken Clouds 3000ft
Scattered Clouds 11000ft
1008 - ETNW 191320Z 12004KT 9999 VCSH BKN030CB SCT110 19/13 Q1008 BLU
MVFR 20°C / 10°C 290º 5kt 9700m in the Vicinity Showers Broken Clouds 2500ft
Scattered Clouds 11000ft
1009 - ETNW 191220Z 29005KT 9999 VCSH BKN025CB SCT110 20/10 Q1009 BLU
VFR 21°C / 13°C 20º 9kt 9700m in the Vicinity Showers Broken Clouds 4000ft
Scattered Clouds 11000ft
1009 - ETNW 191120Z 02009KT 9999 VCSH BKN040CB SCT110 21/13 Q1009 BLU
VFR 19°C / 12°C 30º 6kt 9700m - Broken Clouds 4000ft 1009 - ETNW 191020Z 03006KT 9999 BKN040CB 19/12 Q1009 BLU
VFR 19°C / 13°C 20º 3kt 9700m - Scattered Clouds 4000ft 1009 - ETNW 190920Z 02003KT 9999 SCT040 19/13 Q1009 BLU+
VFR 18°C / 12°C 150º 3kt 9700m - Few Clouds 1500ft
Scattered Clouds 11000ft
1009 - ETNW 190820Z 15003KT 9999 FEW015 SCT110 18/12 Q1009 BLU+
VFR 16°C / 13°C 2kt 9700m - Few Clouds 4400ft
Scattered Clouds 11000ft
1010 - ETNW 190720Z VRB02KT 9999 FEW044 SCT110 16/13 Q1010 BLU+
VFR 15°C / 13°C 30º 1kt 9700m - Few Clouds 4400ft
Broken Clouds 11000ft
1010 - ETNW 190620Z 03001KT 9999 FEW044 BKN110 15/13 Q1010 BLU
VFR 13°C / 12°C 1kt 9700m - Few Clouds 4400ft
Broken Clouds 11000ft
1009 - ETNW 190520Z VRB01KT 9999 FEW044 BKN110 13/12 Q1009 BLU
VFR 13°C / 12°C 280º 2kt 9700m - Few Clouds 4400ft
Broken Clouds 11000ft
1009 - ETNW 190420Z 28002KT 9999 FEW044 BKN110 13/12 Q1009 BLU
VFR 13°C / 12°C 200º 3kt 9700m - Few Clouds 6500ft
Broken Clouds 11000ft
1009 - ETNW 190320Z 20003KT 9999 FEW065 BKN110 13/12 Q1009 BLU
VFR 13°C / 12°C 300º 2kt 9700m - Scattered Clouds 6500ft
Broken Clouds 11000ft
1009 - ETNW 190220Z 30002KT 9999 SCT065 BKN110 13/12 Q1009 BLU
VFR 13°C / 12°C 1kt 9700m - Broken Clouds 6500ft
Broken Clouds 11000ft
1009 - ETNW 190120Z VRB01KT 9999 BKN065 BKN110 13/12 Q1009 BLU
VFR 13°C / 13°C 270º 2kt 9700m - Few Clouds 4000ft
Scattered Clouds 6000ft
Broken Clouds 11000ft
1009 - ETNW 190020Z 27002KT 9999 FEW040 SCT060 BKN110 13/13 Q1009 BLU
VFR 13°C / 13°C 320º 2kt 9700m - Few Clouds 2000ft
Scattered Clouds 4200ft
Broken Clouds 11000ft
1009 - ETNW 182320Z 32002KT 9999 FEW020 SCT042 BKN110 13/13 Q1009 BLU
VFR 13°C / 13°C 270º 4kt 9700m - Few Clouds 8000ft
Broken Clouds 11000ft
1010 - ETNW 182220Z 27004KT 9999 FEW080 BKN110 13/13 Q1010 BLU
VFR 14°C / 13°C 240º 2kt 9700m - Few Clouds 4800ft
Broken Clouds 11000ft
1010 - ETNW 182120Z 24002KT 9999 FEW048 BKN110 14/13 Q1010 BLU
VFR 15°C / 14°C 270º 4kt 9700m - Few Clouds 4000ft
Scattered Clouds 8000ft
Broken Clouds 11000ft
1010 - ETNW 182020Z 27004KT 9999 FEW040 SCT080 BKN110 15/14 Q1010 BLU
VFR 15°C / 14°C 20º 1kt 9700m - Few Clouds 4000ft
Broken Clouds 8000ft
1009 - ETNW 181920Z 02001KT 9999 FEW040CB BKN080 15/14 Q1009 BLU

VFR

19°C / 12°C

[Περισσότερο]
Άνεμος 90º 7kt
Ορατότητα 9700m
Καιρός -
Νέφη Few Clouds 3000ft
Scattered Clouds 9000ft
Broken Clouds 24000ft
Πίεση 1008
Αλλαγή -
Ανεπεξέργαστο ETNW 191620Z 09007KT 9999 FEW030CB SCT090 BKN240 19/12 Q1008 RETS BLU+

VFR

20°C / 13°C

[Περισσότερο]
Άνεμος 310º 4kt
Ορατότητα 9700m
Καιρός Thunderstorm
Νέφη Scattered Clouds 3000ft
Broken Clouds 24000ft
Πίεση 1008
Αλλαγή -
Ανεπεξέργαστο ETNW 191520Z 31004KT 9999 TS SCT030CB BKN240 20/13 Q1008 BLU+

VFR

18°C / 12°C

[Περισσότερο]
Άνεμος 290º 2kt
Ορατότητα 9700m
Καιρός -
Νέφη Scattered Clouds 3000ft
Scattered Clouds 9000ft
Broken Clouds 24000ft
Πίεση 1008
Αλλαγή -
Ανεπεξέργαστο ETNW 191440Z 29002KT 9999 SCT030CB SCT090 BKN240 18/12 Q1008 RETS BLU+

VFR

17°C / 15°C

[Περισσότερο]
Άνεμος 250º 3kt
Ορατότητα 9700m
Καιρός Thunderstorm
Νέφη Scattered Clouds 3000ft
Broken Clouds 9000ft
Πίεση 1008
Αλλαγή -
Ανεπεξέργαστο ETNW 191420Z 25003KT 9999 TS SCT030CB BKN090 17/15 Q1008 BLU

MVFR

17°C / 12°C

[Περισσότερο]
Άνεμος 340º 9kt
Ορατότητα 9700m
Καιρός Light Thunderstorm Rain 3.00mm precipitation
Νέφη Broken Clouds 3000ft
Scattered Clouds 11000ft
Πίεση 1009
Αλλαγή -
Ανεπεξέργαστο ETNW 191334Z 34009KT 9999 -TSRA BKN030CB SCT110 17/12 Q1009 BLU

MVFR

19°C / 13°C

[Περισσότερο]
Άνεμος 120º 4kt
Ορατότητα 9700m
Καιρός in the Vicinity Showers
Νέφη Broken Clouds 3000ft
Scattered Clouds 11000ft
Πίεση 1008
Αλλαγή -
Ανεπεξέργαστο ETNW 191320Z 12004KT 9999 VCSH BKN030CB SCT110 19/13 Q1008 BLU

MVFR

20°C / 10°C

[Περισσότερο]
Άνεμος 290º 5kt
Ορατότητα 9700m
Καιρός in the Vicinity Showers
Νέφη Broken Clouds 2500ft
Scattered Clouds 11000ft
Πίεση 1009
Αλλαγή -
Ανεπεξέργαστο ETNW 191220Z 29005KT 9999 VCSH BKN025CB SCT110 20/10 Q1009 BLU

VFR

21°C / 13°C

[Περισσότερο]
Άνεμος 20º 9kt
Ορατότητα 9700m
Καιρός in the Vicinity Showers
Νέφη Broken Clouds 4000ft
Scattered Clouds 11000ft
Πίεση 1009
Αλλαγή -
Ανεπεξέργαστο ETNW 191120Z 02009KT 9999 VCSH BKN040CB SCT110 21/13 Q1009 BLU

VFR

19°C / 12°C

[Περισσότερο]
Άνεμος 30º 6kt
Ορατότητα 9700m
Καιρός -
Νέφη Broken Clouds 4000ft
Πίεση 1009
Αλλαγή -
Ανεπεξέργαστο ETNW 191020Z 03006KT 9999 BKN040CB 19/12 Q1009 BLU

VFR

19°C / 13°C

[Περισσότερο]
Άνεμος 20º 3kt
Ορατότητα 9700m
Καιρός -
Νέφη Scattered Clouds 4000ft
Πίεση 1009
Αλλαγή -
Ανεπεξέργαστο ETNW 190920Z 02003KT 9999 SCT040 19/13 Q1009 BLU+

VFR

18°C / 12°C

[Περισσότερο]
Άνεμος 150º 3kt
Ορατότητα 9700m
Καιρός -
Νέφη Few Clouds 1500ft
Scattered Clouds 11000ft
Πίεση 1009
Αλλαγή -
Ανεπεξέργαστο ETNW 190820Z 15003KT 9999 FEW015 SCT110 18/12 Q1009 BLU+

VFR

16°C / 13°C

[Περισσότερο]
Άνεμος 2kt
Ορατότητα 9700m
Καιρός -
Νέφη Few Clouds 4400ft
Scattered Clouds 11000ft
Πίεση 1010
Αλλαγή -
Ανεπεξέργαστο ETNW 190720Z VRB02KT 9999 FEW044 SCT110 16/13 Q1010 BLU+

VFR

15°C / 13°C

[Περισσότερο]
Άνεμος 30º 1kt
Ορατότητα 9700m
Καιρός -
Νέφη Few Clouds 4400ft
Broken Clouds 11000ft
Πίεση 1010
Αλλαγή -
Ανεπεξέργαστο ETNW 190620Z 03001KT 9999 FEW044 BKN110 15/13 Q1010 BLU

VFR

13°C / 12°C

[Περισσότερο]
Άνεμος 1kt
Ορατότητα 9700m
Καιρός -
Νέφη Few Clouds 4400ft
Broken Clouds 11000ft
Πίεση 1009
Αλλαγή -
Ανεπεξέργαστο ETNW 190520Z VRB01KT 9999 FEW044 BKN110 13/12 Q1009 BLU

VFR

13°C / 12°C

[Περισσότερο]
Άνεμος 280º 2kt
Ορατότητα 9700m
Καιρός -
Νέφη Few Clouds 4400ft
Broken Clouds 11000ft
Πίεση 1009
Αλλαγή -
Ανεπεξέργαστο ETNW 190420Z 28002KT 9999 FEW044 BKN110 13/12 Q1009 BLU

VFR

13°C / 12°C

[Περισσότερο]
Άνεμος 200º 3kt
Ορατότητα 9700m
Καιρός -
Νέφη Few Clouds 6500ft
Broken Clouds 11000ft
Πίεση 1009
Αλλαγή -
Ανεπεξέργαστο ETNW 190320Z 20003KT 9999 FEW065 BKN110 13/12 Q1009 BLU

VFR

13°C / 12°C

[Περισσότερο]
Άνεμος 300º 2kt
Ορατότητα 9700m
Καιρός -
Νέφη Scattered Clouds 6500ft
Broken Clouds 11000ft
Πίεση 1009
Αλλαγή -
Ανεπεξέργαστο ETNW 190220Z 30002KT 9999 SCT065 BKN110 13/12 Q1009 BLU

VFR

13°C / 12°C

[Περισσότερο]
Άνεμος 1kt
Ορατότητα 9700m
Καιρός -
Νέφη Broken Clouds 6500ft
Broken Clouds 11000ft
Πίεση 1009
Αλλαγή -
Ανεπεξέργαστο ETNW 190120Z VRB01KT 9999 BKN065 BKN110 13/12 Q1009 BLU

VFR

13°C / 13°C

[Περισσότερο]
Άνεμος 270º 2kt
Ορατότητα 9700m
Καιρός -
Νέφη Few Clouds 4000ft
Scattered Clouds 6000ft
Broken Clouds 11000ft
Πίεση 1009
Αλλαγή -
Ανεπεξέργαστο ETNW 190020Z 27002KT 9999 FEW040 SCT060 BKN110 13/13 Q1009 BLU

VFR

13°C / 13°C

[Περισσότερο]
Άνεμος 320º 2kt
Ορατότητα 9700m
Καιρός -
Νέφη Few Clouds 2000ft
Scattered Clouds 4200ft
Broken Clouds 11000ft
Πίεση 1009
Αλλαγή -
Ανεπεξέργαστο ETNW 182320Z 32002KT 9999 FEW020 SCT042 BKN110 13/13 Q1009 BLU

VFR

13°C / 13°C

[Περισσότερο]
Άνεμος 270º 4kt
Ορατότητα 9700m
Καιρός -
Νέφη Few Clouds 8000ft
Broken Clouds 11000ft
Πίεση 1010
Αλλαγή -
Ανεπεξέργαστο ETNW 182220Z 27004KT 9999 FEW080 BKN110 13/13 Q1010 BLU

VFR

14°C / 13°C

[Περισσότερο]
Άνεμος 240º 2kt
Ορατότητα 9700m
Καιρός -
Νέφη Few Clouds 4800ft
Broken Clouds 11000ft
Πίεση 1010
Αλλαγή -
Ανεπεξέργαστο ETNW 182120Z 24002KT 9999 FEW048 BKN110 14/13 Q1010 BLU

VFR

15°C / 14°C

[Περισσότερο]
Άνεμος 270º 4kt
Ορατότητα 9700m
Καιρός -
Νέφη Few Clouds 4000ft
Scattered Clouds 8000ft
Broken Clouds 11000ft
Πίεση 1010
Αλλαγή -
Ανεπεξέργαστο ETNW 182020Z 27004KT 9999 FEW040 SCT080 BKN110 15/14 Q1010 BLU

VFR

15°C / 14°C

[Περισσότερο]
Άνεμος 20º 1kt
Ορατότητα 9700m
Καιρός -
Νέφη Few Clouds 4000ft
Broken Clouds 8000ft
Πίεση 1009
Αλλαγή -
Ανεπεξέργαστο ETNW 181920Z 02001KT 9999 FEW040CB BKN080 15/14 Q1009 BLU

TAF για Bordenau (ETNW)

From till


From till Wind 330º 4kt. Visibility 9700m. Scattered Clouds 4000ft. Broken Clouds 7000ft.
Temporarly from till Wind 350º 10kt. Visibility 4000m. Showers Rain . Broken Clouds 2000ft.
With 30% probability, from till Wind 15kt. Gust 25kt. Visibility 2000m. Thunderstorm Rain . Broken Clouds 2000ft.
Becoming from till
Temporarly from till Wind 2kt. Visibility 2000m. Mist . Broken Clouds 300ft.
With 30% probability, from till Wind 1kt. Visibility 498.895m. Fog . Broken Clouds 100ft.
Temporarly from till Wind 100º 7kt. Visibility 4000m. Showers Rain . Scattered Clouds 800ft. Broken Clouds 2000ft.
With 30% probability, from till Wind 15kt. Gust 25kt. Visibility 2000m. Thunderstorm Rain . Scattered Clouds 500ft. Broken Clouds 2000ft.

Ανεπεξέργαστο: TAF ETNW 191604Z 1917/2017 33004KT 9999 NSW SCT040 BKN070 TEMPO 1917/1920 35010KT 4000 SHRA BKN020CB PROB30 1917/1919 VRB15G25KT 2000 TSRA BKN020CB BECMG 1921/1923 VRB03KT 9999 NSW SCT010 BKN030 TEMPO 1923/2006 VRB02KT 2000 BR BKN003 PROB30 2000/2005 VRB01KT 0500 FG BKN001 TEMPO 2008/2017 10007KT 4000 SHRA SCT008 BKN020CB PROB30 2009/2017 VRB15G25KT 2000 TSRA SCT005 BKN020CB

rainNOW: Nowcast βροχής για Bordenau και περιφέρεια (25km ακτίνα)

0.0 χιλιοστά
0.0 χιλιοστά
0.0 χιλιοστά
0.0 χιλιοστά
0.0 χιλιοστά
0.0 χιλιοστά
0.0 χιλιοστά
0.0 χιλιοστά
0.0 χιλιοστά
0.0 χιλιοστά
0.0 χιλιοστά
0.0 χιλιοστά

Ραντάρ και πρόγνωση υετού μικρής διάρκειας για Bordenau

Ψιλοβρέχει
Ελαφριά
Μέτρια
Έντονη
Πολύ έντονες
Χαλάζι

Ο δείκτης θέσης τοποθετείται στο Bordenau. Αυτό το κινούμενο σχέδιο δείχνει το ραντάρ βροχόπτωσης για το επιλεγμένο χρονικό εύρος, καθώς και μια πρόγνωση 2h. Οι πορτοκαλί σταυροί υποδεικνύουν κεραυνούς. Δεδομένα που παρέχονται από nowcast.de (διαθέσιμα στις ΗΠΑ, την Ευρώπη, την Αυστραλία). Το ψιλόβροχο ή το ελαφρύ χιόνι μπορεί να είναι αόρατο για το ραντάρ. Η ένταση της βροχόπτωσης είναι χρωματικά κωδικοποιημένη και κυμαίνεται από τυρκουάζ έως κόκκινο.

Τρέχουσες εικόνες δορυφόρου και βροχής για Bordenau, Γερμανία

Η ένδειξη τοποθεσίας τοποθετείται στο Bordenau. [Περισσότερο]

Οι δορυφορικές εικόνες σε πραγματικό χρόνο συνδυάζουν ορατό φως κατά τη διάρκεια της ημέρας με υπέρυθρη ακτινοβολία κατά τη διάρκεια της νύχτας. Κατά τη διάρκεια της νύχτας, η εικόνα δεν είναι σκοτεινή μιας και η υπέρυθρη ακτινοβολία μπορεί να εντοπίσει τις διαφορές στη θερμοκρασία. Δυστυχώς, είναι δύσκολο να ξεχωρίσουν οι χαμηλές νεφώσεις και η ομίχλη από τις θερμοκρασίες εδάφους και έτσι μπορεί να είναι σχετικά αόρατα κατά τη διάρκεια της νύχτας. Οι εικόνες από τον δορυφόρο Meteosat για την Ευρώπη ενημερώνονται σε πραγματικό χρόνο κάθε 5 λεπτά. Οι εικόνες από τους δορυφόρους GOES-16/GOES-17 (Βόρεια & Λατινική Αμερική) και Himawari (Ασία) ενημερώνονται κάθε 10 λεπτά.

Η βροχόπτωση εκτιμάται από ραντάρ και δορυφόρους. Οι εκτιμήσεις βροχόπτωσης από τους δορυφόρους είναι λιγότερο ακριβείς τη νύχτα απ' ό,τι κατά τη διάρκεια της ημέρας.

© 2024 meteoblue, NOAA Satellites GOES-16 and EUMETSAT. Δεδομένα αστραπών παρεχόμενα από nowcast.

Επιστροφή στην κορυφή
×
Γεια σου,
φαίνεται ότι χρησιμοποιείς ένα πρόγραμμα αποκλεισμού διαφημίσεων.

Η διαφήμιση είναι απαραίτητη για τη διατήρηση του δωρεάν ιστότοπού μας με μοναδική λεπτομέρεια και ακρίβεια.

Παρακαλούμε καταχωρήστε το www.meteoblue.com στη λευκή λίστα του ad blocker σας ή σκεφτείτε να αγοράσετε ένα από τα προϊόντα μας:

Έχετε ήδη συνδρομή;
Τότε παρακαλούμε σύνδεση.